createdAt,value
2019-04-29T00:00:36.428Z,72.85
2019-04-29T00:01:36.863Z,72.81
2019-04-29T00:02:37.296Z,72.81
2019-04-29T00:03:37.767Z,72.81
2019-04-29T00:04:38.194Z,72.61
2019-04-29T00:05:38.940Z,72.96
2019-04-29T00:06:39.379Z,72.85
2019-04-29T00:07:39.813Z,72.85
2019-04-29T00:08:40.302Z,72.96
2019-04-29T00:09:40.828Z,72.85
2019-04-29T00:10:41.273Z,72.64
2019-04-29T00:11:41.718Z,72.75
2019-04-29T00:12:42.167Z,72.64
2019-04-29T00:13:42.623Z,72.85
2019-04-29T00:14:43.053Z,72.75
2019-04-29T00:15:43.518Z,72.75
2019-04-29T00:16:43.943Z,72.75
2019-04-29T00:17:44.361Z,72.75
2019-04-29T00:18:44.778Z,72.75
2019-04-29T00:19:45.233Z,72.75
2019-04-29T00:20:45.683Z,72.64
2019-04-29T00:21:46.107Z,72.75
2019-04-29T00:22:46.564Z,72.75
2019-04-29T00:23:46.989Z,72.75
2019-04-29T00:24:47.414Z,72.85
2019-04-29T00:25:47.850Z,72.85
2019-04-29T00:26:48.330Z,72.75
2019-04-29T00:27:48.771Z,72.85
2019-04-29T00:28:50.517Z,72.85
2019-04-29T00:29:51.009Z,72.64
2019-04-29T00:30:51.451Z,72.67
2019-04-29T00:31:51.879Z,72.78
2019-04-29T00:32:52.323Z,72.88
2019-04-29T00:33:52.765Z,72.78
2019-04-29T00:34:53.191Z,72.88
2019-04-29T00:35:53.634Z,72.67
2019-04-29T00:36:54.065Z,72.78
2019-04-29T00:37:55.596Z,72.78
2019-04-29T00:38:56.024Z,72.47
2019-04-29T00:39:56.451Z,72.58
2019-04-29T00:40:56.906Z,72.67
2019-04-29T00:41:57.334Z,72.47
2019-04-29T00:42:57.770Z,72.67
2019-04-29T00:43:58.203Z,72.58
2019-04-29T00:44:58.700Z,72.58
2019-04-29T00:45:59.154Z,72.58
2019-04-29T00:46:59.586Z,72.47
2019-04-29T00:48:00.051Z,72.58
2019-04-29T00:49:00.483Z,72.67
2019-04-29T00:50:00.917Z,72.67
2019-04-29T00:51:01.383Z,72.40
2019-04-29T00:52:01.820Z,72.47
2019-04-29T00:53:02.363Z,72.61
2019-04-29T00:54:02.793Z,72.61
2019-04-29T00:55:03.226Z,72.58
2019-04-29T00:56:03.746Z,72.81
2019-04-29T00:57:04.186Z,72.81
2019-04-29T00:58:04.662Z,72.40
2019-04-29T00:59:05.093Z,72.71
2019-04-29T01:00:05.586Z,72.71
2019-04-29T01:01:06.033Z,72.81
2019-04-29T01:02:06.522Z,73.12
2019-04-29T01:03:06.949Z,72.61
2019-04-29T01:04:07.515Z,72.81
2019-04-29T01:05:07.938Z,72.71
2019-04-29T01:06:08.542Z,72.61
2019-04-29T01:07:08.980Z,72.19
2019-04-29T01:08:09.477Z,73.12
2019-04-29T01:09:09.906Z,72.71
2019-04-29T01:10:10.672Z,73.12
2019-04-29T01:11:11.110Z,72.40
2019-04-29T01:12:11.609Z,73.22
2019-04-29T01:13:12.032Z,72.61
2019-04-29T01:14:12.544Z,72.71
2019-04-29T01:15:12.971Z,73.02
2019-04-29T01:16:14.546Z,73.12
2019-04-29T01:17:14.969Z,73.05
2019-04-29T01:18:15.459Z,72.30
2019-04-29T01:19:15.902Z,73.02
2019-04-29T01:20:16.370Z,73.16
2019-04-29T01:21:16.814Z,73.05
2019-04-29T01:22:17.311Z,72.64
2019-04-29T01:23:17.740Z,73.16
2019-04-29T01:24:18.241Z,73.05
2019-04-29T01:25:18.666Z,72.95
2019-04-29T01:26:19.214Z,72.85
2019-04-29T01:27:19.705Z,72.95
2019-04-29T01:28:20.218Z,73.05
2019-04-29T01:29:20.653Z,72.95
2019-04-29T01:30:21.149Z,72.74
2019-04-29T01:31:21.618Z,72.71
2019-04-29T01:32:22.084Z,72.85
2019-04-29T01:33:22.602Z,72.74
2019-04-29T01:34:23.130Z,73.05
2019-04-29T01:35:23.573Z,73.05
2019-04-29T01:36:25.228Z,72.74
2019-04-29T01:37:25.653Z,72.95
2019-04-29T01:38:26.125Z,72.95
2019-04-29T01:39:26.552Z,73.05
2019-04-29T01:40:27.058Z,73.05
2019-04-29T01:41:27.515Z,73.05
2019-04-29T01:42:28.002Z,73.05
2019-04-29T01:43:28.427Z,72.74
2019-04-29T01:44:28.932Z,73.05
2019-04-29T01:45:29.364Z,72.64
2019-04-29T01:46:29.903Z,72.74
2019-04-29T01:47:30.342Z,72.64
2019-04-29T01:48:30.802Z,72.64
2019-04-29T01:49:31.530Z,72.85
2019-04-29T01:50:32.042Z,72.95
2019-04-29T01:51:32.494Z,72.74
2019-04-29T01:52:32.975Z,73.26
2019-04-29T01:53:33.395Z,73.26
2019-04-29T01:54:33.909Z,72.74
2019-04-29T01:55:34.343Z,72.95
2019-04-29T01:56:34.885Z,73.19
2019-04-29T01:57:35.312Z,72.74
2019-04-29T01:58:35.785Z,72.57
2019-04-29T01:59:36.205Z,72.67
2019-04-29T02:00:36.718Z,72.67
2019-04-29T02:01:37.176Z,72.74
2019-04-29T02:02:37.658Z,72.74
2019-04-29T02:03:38.093Z,72.88
2019-04-29T02:04:38.590Z,72.88
2019-04-29T02:05:39.016Z,73.19
2019-04-29T02:06:39.560Z,72.88
2019-04-29T02:07:39.992Z,72.99
2019-04-29T02:08:40.455Z,72.99
2019-04-29T02:09:40.913Z,73.09
2019-04-29T02:10:41.396Z,72.99
2019-04-29T02:11:42.171Z,73.19
2019-04-29T02:12:42.634Z,72.99
2019-04-29T02:13:43.055Z,72.88
2019-04-29T02:14:43.568Z,72.99
2019-04-29T02:15:43.995Z,72.91
2019-04-29T02:16:44.552Z,73.09
2019-04-29T02:17:44.980Z,72.99
2019-04-29T02:18:45.447Z,73.39
2019-04-29T02:19:45.881Z,73.43
2019-04-29T02:20:46.379Z,73.33
2019-04-29T02:21:46.819Z,73.43
2019-04-29T02:22:47.317Z,73.43
2019-04-29T02:23:47.745Z,73.22
2019-04-29T02:24:48.245Z,73.39
2019-04-29T02:25:48.669Z,73.43
2019-04-29T02:26:49.221Z,73.12
2019-04-29T02:27:49.650Z,73.12
2019-04-29T02:28:50.120Z,72.91
2019-04-29T02:29:50.624Z,73.02
2019-04-29T02:30:52.082Z,73.02
2019-04-29T02:31:52.706Z,73.02
2019-04-29T02:32:53.235Z,73.12
2019-04-29T02:33:53.667Z,73.33
2019-04-29T02:34:54.172Z,73.43
2019-04-29T02:35:54.602Z,73.33
2019-04-29T02:36:55.126Z,73.33
2019-04-29T02:37:55.662Z,73.54
2019-04-29T02:38:56.135Z,73.54
2019-04-29T02:39:56.563Z,73.54
2019-04-29T02:40:58.095Z,73.12
2019-04-29T02:41:58.545Z,73.43
2019-04-29T02:43:00.054Z,73.33
2019-04-29T02:44:00.493Z,73.33
2019-04-29T02:45:00.988Z,73.33
2019-04-29T02:46:01.418Z,73.47
2019-04-29T02:47:01.957Z,73.54
2019-04-29T02:48:02.476Z,73.22
2019-04-29T02:49:03.177Z,73.43
2019-04-29T02:50:03.657Z,73.43
2019-04-29T02:51:04.105Z,73.33
2019-04-29T02:52:04.549Z,73.12
2019-04-29T02:53:05.036Z,73.12
2019-04-29T02:54:05.464Z,73.33
2019-04-29T02:55:05.974Z,73.22
2019-04-29T02:56:06.408Z,73.33
2019-04-29T02:57:06.950Z,73.22
2019-04-29T02:58:07.388Z,73.33
2019-04-29T02:59:07.841Z,73.22
2019-04-29T03:00:08.276Z,73.22
2019-04-29T03:01:08.783Z,73.33
2019-04-29T03:02:09.243Z,73.33
2019-04-29T03:03:09.710Z,73.22
2019-04-29T03:04:10.147Z,73.12
2019-04-29T03:05:10.654Z,73.33
2019-04-29T03:06:11.103Z,73.22
2019-04-29T03:07:11.619Z,73.43
2019-04-29T03:08:12.058Z,73.12
2019-04-29T03:09:12.516Z,73.33
2019-04-29T03:10:12.953Z,73.22
2019-04-29T03:11:13.763Z,73.43
2019-04-29T03:12:14.247Z,73.54
2019-04-29T03:13:14.801Z,73.33
2019-04-29T03:14:15.242Z,73.54
2019-04-29T03:15:15.734Z,73.33
2019-04-29T03:16:16.165Z,73.43
2019-04-29T03:17:18.743Z,73.33
2019-04-29T03:18:19.729Z,73.33
2019-04-29T03:19:20.269Z,73.12
2019-04-29T03:20:20.694Z,73.33
2019-04-29T03:21:21.122Z,73.33
2019-04-29T03:22:21.558Z,73.43
2019-04-29T03:23:22.002Z,73.33
2019-04-29T03:24:22.436Z,73.43
2019-04-29T03:25:22.968Z,73.02
2019-04-29T03:26:23.410Z,73.02
2019-04-29T03:27:23.936Z,73.02
2019-04-29T03:28:24.375Z,73.02
2019-04-29T03:29:25.870Z,73.02
2019-04-29T03:30:26.301Z,72.91
2019-04-29T03:31:26.803Z,73.02
2019-04-29T03:32:27.282Z,73.12
2019-04-29T03:33:27.744Z,73.33
2019-04-29T03:34:28.194Z,73.22
2019-04-29T03:35:28.781Z,73.43
2019-04-29T03:36:29.220Z,73.22
2019-04-29T03:37:29.753Z,73.02
2019-04-29T03:38:30.203Z,73.02
2019-04-29T03:39:30.961Z,73.02
2019-04-29T03:40:31.387Z,73.22
2019-04-29T03:41:31.893Z,73.05
2019-04-29T03:42:32.340Z,73.16
2019-04-29T03:43:32.837Z,73.36
2019-04-29T03:44:33.284Z,73.36
2019-04-29T03:45:33.764Z,73.26
2019-04-29T03:46:34.195Z,73.26
2019-04-29T03:47:34.751Z,73.36
2019-04-29T03:48:35.215Z,73.16
2019-04-29T03:49:35.746Z,73.36
2019-04-29T03:50:36.270Z,73.36
2019-04-29T03:51:36.783Z,73.26
2019-04-29T03:52:37.230Z,73.19
2019-04-29T03:53:37.720Z,73.47
2019-04-29T03:54:38.157Z,73.39
2019-04-29T03:55:40.507Z,73.39
2019-04-29T03:56:41.324Z,73.50
2019-04-29T03:57:41.872Z,73.50
2019-04-29T03:58:42.307Z,73.47
2019-04-29T03:59:43.801Z,73.36
2019-04-29T04:00:44.506Z,73.39
2019-04-29T04:01:45.061Z,73.50
2019-04-29T04:02:45.512Z,73.50
2019-04-29T04:03:45.988Z,73.50
2019-04-29T04:04:46.410Z,73.60
2019-04-29T04:05:46.913Z,73.19
2019-04-29T04:06:47.345Z,73.29
2019-04-29T04:07:47.988Z,73.60
2019-04-29T04:09:04.783Z,73.19
2019-04-29T04:09:54.827Z,73.39
2019-04-29T04:10:55.345Z,73.50
2019-04-29T04:11:55.780Z,73.19
2019-04-29T04:12:57.351Z,73.50
2019-04-29T04:13:57.780Z,73.50
2019-04-29T04:15:15.218Z,73.60
2019-04-29T04:16:15.661Z,72.98
2019-04-29T04:17:20.259Z,73.39
2019-04-29T04:18:21.161Z,73.50
2019-04-29T04:19:21.727Z,73.50
2019-04-29T04:20:22.236Z,73.29
2019-04-29T04:21:23.757Z,73.08
2019-04-29T04:22:24.187Z,73.19
2019-04-29T04:23:25.758Z,73.08
2019-04-29T04:24:26.191Z,72.98
2019-04-29T04:25:27.676Z,73.19
2019-04-29T04:26:28.208Z,73.08
2019-04-29T04:27:43.662Z,73.19
2019-04-29T04:28:44.123Z,73.08
2019-04-29T04:29:45.618Z,73.29
2019-04-29T04:30:46.052Z,73.36
2019-04-29T04:31:46.552Z,73.19
2019-04-29T04:32:47.021Z,73.39
2019-04-29T04:33:47.489Z,73.08
2019-04-29T04:34:47.923Z,73.39
2019-04-29T04:35:57.130Z,72.98
2019-04-29T04:37:00.264Z,73.08
2019-04-29T04:38:03.147Z,73.39
2019-04-29T04:39:03.602Z,73.19
2019-04-29T04:40:06.052Z,73.19
2019-04-29T04:41:06.480Z,73.60
2019-04-29T04:42:08.026Z,73.26
2019-04-29T04:43:08.472Z,73.26
2019-04-29T04:44:08.902Z,73.36
2019-04-29T04:45:10.398Z,73.05
2019-04-29T04:46:10.827Z,73.26
2019-04-29T04:47:11.253Z,73.05
2019-04-29T04:48:11.791Z,73.16
2019-04-29T04:49:15.752Z,73.16
2019-04-29T04:50:16.418Z,73.36
2019-04-29T04:51:16.844Z,73.36
2019-04-29T04:52:19.351Z,73.26
2019-04-29T04:53:19.868Z,73.26
2019-04-29T04:54:20.348Z,73.36
2019-04-29T04:55:20.876Z,73.47
2019-04-29T04:56:21.310Z,73.16
2019-04-29T04:57:21.761Z,73.36
2019-04-29T04:58:22.222Z,73.26
2019-04-29T04:59:22.671Z,73.36
2019-04-29T05:00:23.192Z,73.26
2019-04-29T05:01:23.635Z,73.47
2019-04-29T05:02:24.129Z,73.26
2019-04-29T05:03:24.613Z,73.26
2019-04-29T05:04:25.188Z,73.36
2019-04-29T05:05:25.608Z,73.47
2019-04-29T05:06:26.100Z,73.26
2019-04-29T05:07:26.522Z,73.22
2019-04-29T05:08:29.027Z,73.22
2019-04-29T05:09:29.526Z,73.12
2019-04-29T05:10:30.027Z,73.22
2019-04-29T05:11:30.467Z,73.43
2019-04-29T05:12:30.924Z,73.43
2019-04-29T05:13:31.372Z,73.02
2019-04-29T05:14:32.160Z,73.12
2019-04-29T05:15:32.582Z,73.12
2019-04-29T05:16:34.675Z,73.02
2019-04-29T05:17:35.102Z,73.22
2019-04-29T05:18:35.648Z,73.22
2019-04-29T05:19:36.078Z,73.02
2019-04-29T05:20:36.612Z,73.02
2019-04-29T05:21:37.118Z,72.78
2019-04-29T05:22:37.581Z,73.19
2019-04-29T05:23:38.027Z,73.19
2019-04-29T05:24:38.516Z,73.02
2019-04-29T05:25:38.942Z,72.88
2019-04-29T05:26:40.476Z,73.02
2019-04-29T05:27:40.901Z,72.99
2019-04-29T05:28:41.476Z,72.99
2019-04-29T05:29:41.897Z,72.85
2019-04-29T05:30:42.660Z,72.85
2019-04-29T05:31:43.091Z,72.74
2019-04-29T05:32:43.589Z,73.05
2019-04-29T05:33:44.029Z,72.74
2019-04-29T05:34:48.219Z,73.16
2019-04-29T05:35:48.766Z,73.16
2019-04-29T05:36:58.146Z,72.71
2019-04-29T05:37:58.641Z,72.74
2019-04-29T05:39:04.137Z,72.92
2019-04-29T05:40:04.589Z,72.61
2019-04-29T06:15:08.012Z,71.28
2019-04-29T06:16:08.435Z,71.17
2019-04-29T06:17:09.997Z,71.45
2019-04-29T06:18:10.413Z,71.37
2019-04-29T06:19:10.975Z,71.48
2019-04-29T06:20:13.055Z,71.37
2019-04-29T06:21:18.928Z,71.45
2019-04-29T06:22:19.357Z,71.34
2019-04-29T06:23:23.086Z,71.45
2019-04-29T06:24:24.691Z,71.04
2019-04-29T06:25:25.221Z,71.24
2019-04-29T06:26:25.652Z,71.55
2019-04-29T06:27:26.244Z,71.24
2019-04-29T06:28:28.179Z,71.34
2019-04-29T06:29:30.899Z,71.34
2019-04-29T06:30:31.325Z,71.45
2019-04-29T06:31:38.715Z,71.34
2019-04-29T06:32:39.138Z,71.31
2019-04-29T06:33:40.728Z,71.72
2019-04-29T06:34:41.786Z,71.51
2019-04-29T06:35:47.305Z,71.93
2019-04-29T06:36:49.812Z,71.28
2019-04-29T06:37:51.400Z,70.87
2019-04-29T06:38:51.826Z,70.97
2019-04-29T06:39:55.852Z,71.17
2019-04-29T06:40:56.340Z,71.08
2019-04-29T06:41:58.896Z,70.97
2019-04-29T06:42:59.326Z,70.84
2019-04-29T06:44:06.669Z,70.73
2019-04-29T06:45:10.686Z,70.73
2019-04-29T06:46:12.198Z,70.73
2019-04-29T06:47:12.675Z,70.12
2019-04-29T06:48:13.186Z,70.32
2019-04-29T06:49:13.629Z,69.88
2019-04-29T06:50:21.918Z,70.18
2019-04-29T06:51:27.308Z,69.88
2019-04-29T06:52:27.866Z,70.29
2019-04-29T06:53:28.304Z,69.88
2019-04-29T06:54:28.833Z,69.88
2019-04-29T06:55:29.266Z,69.98
2019-04-29T06:56:29.830Z,69.67
2019-04-29T06:57:30.256Z,69.57
2019-04-29T06:58:38.415Z,69.26
2019-04-29T06:59:43.007Z,69.54
2019-04-29T07:00:45.412Z,69.64
2019-04-29T07:01:45.833Z,70.15
2019-04-29T07:02:49.853Z,69.95
2019-04-29T07:03:51.410Z,69.84
2019-04-29T07:04:51.859Z,69.95
2019-04-29T07:05:52.280Z,70.26
2019-04-29T07:06:57.727Z,70.12
2019-04-29T07:07:59.203Z,70.32
2019-04-29T07:08:59.640Z,68.99
2019-04-29T07:10:00.088Z,68.99
2019-04-29T07:11:00.934Z,68.89
2019-04-29T07:12:03.283Z,69.20
2019-04-29T07:13:03.731Z,69.10
2019-04-29T07:14:04.170Z,69.30
2019-04-29T07:15:07.551Z,69.27
2019-04-29T07:16:11.132Z,69.37
2019-04-29T07:17:11.558Z,69.17
2019-04-29T07:18:11.987Z,69.37
2019-04-29T07:19:12.415Z,69.68
2019-04-29T07:20:12.858Z,69.37
2019-04-29T07:21:13.280Z,69.57
2019-04-29T07:22:13.742Z,69.57
2019-04-29T07:23:14.189Z,69.68
2019-04-29T07:24:14.701Z,69.54
2019-04-29T07:25:15.207Z,68.93
2019-04-29T07:26:15.703Z,68.62
2019-04-29T07:27:16.134Z,68.69
2019-04-29T07:28:18.432Z,68.28
2019-04-29T07:29:19.533Z,68.18
2019-04-29T07:30:20.507Z,68.28
2019-04-29T07:31:20.949Z,67.77
2019-04-29T07:32:21.415Z,67.54
2019-04-29T07:33:24.048Z,67.54
2019-04-29T07:34:28.980Z,67.64
2019-04-29T07:35:31.423Z,67.64
2019-04-29T07:36:31.963Z,66.89
2019-04-29T07:37:34.174Z,66.99
2019-04-29T07:38:41.767Z,66.99
2019-04-29T07:39:42.708Z,66.99
2019-04-29T07:40:44.532Z,67.19
2019-04-29T07:41:45.095Z,67.16
2019-04-29T07:42:45.626Z,67.19
2019-04-29T07:43:46.056Z,67.27
2019-04-29T07:44:48.857Z,67.16
2019-04-29T07:45:52.909Z,67.27
2019-04-29T07:47:00.225Z,66.86
2019-04-29T07:48:01.585Z,67.13
2019-04-29T07:49:06.247Z,67.13
2019-04-29T07:50:06.714Z,66.62
2019-04-29T07:51:07.182Z,67.03
2019-04-29T07:52:09.739Z,66.62
2019-04-29T07:53:14.168Z,66.72
2019-04-29T07:54:16.010Z,66.83
2019-04-29T07:55:18.071Z,66.93
2019-04-29T07:56:18.515Z,66.90
2019-04-29T07:57:19.094Z,66.80
2019-04-29T07:58:23.048Z,66.69
2019-04-29T07:59:25.921Z,66.59
2019-04-29T08:00:26.524Z,66.49
2019-04-29T08:01:26.970Z,66.08
2019-04-29T08:02:27.405Z,66.36
2019-04-29T08:03:27.834Z,66.25
2019-04-29T08:04:28.263Z,65.74
2019-04-29T08:05:28.773Z,65.54
2019-04-29T08:06:29.233Z,65.20
2019-04-29T08:07:29.670Z,65.20
2019-04-29T08:08:30.112Z,64.90
2019-04-29T08:09:30.548Z,65.20
2019-04-29T08:10:30.997Z,64.69
2019-04-29T08:11:31.430Z,64.39
2019-04-29T08:12:31.850Z,64.49
2019-04-29T08:13:32.287Z,64.49
2019-04-29T08:14:32.715Z,64.69
2019-04-29T08:15:36.934Z,64.79
2019-04-29T08:16:39.566Z,64.69
2019-04-29T08:17:40.004Z,64.79
2019-04-29T08:18:40.454Z,64.15
2019-04-29T08:19:41.065Z,64.69
2019-04-29T08:20:41.556Z,64.25
2019-04-29T08:21:45.553Z,64.15
2019-04-29T08:22:48.425Z,64.05
2019-04-29T08:23:48.880Z,63.95
2019-04-29T08:24:50.559Z,63.51
2019-04-29T08:25:52.309Z,63.31
2019-04-29T08:26:52.787Z,63.31
2019-04-29T08:27:53.520Z,63.00
2019-04-29T08:29:00.432Z,62.90
2019-04-29T08:30:00.366Z,63.82
2019-04-29T08:31:00.813Z,64.02
2019-04-29T08:32:02.546Z,63.82
2019-04-29T08:33:03.084Z,64.20
2019-04-29T08:34:03.584Z,64.20
2019-04-29T08:35:04.011Z,63.71
2019-04-29T08:36:05.476Z,63.89
2019-04-29T08:37:05.903Z,63.68
2019-04-29T08:38:06.377Z,64.20
2019-04-29T08:39:08.663Z,63.24
2019-04-29T08:40:16.387Z,63.45
2019-04-29T08:41:15.908Z,63.35
2019-04-29T08:42:16.448Z,63.35
2019-04-29T08:43:20.600Z,63.24
2019-04-29T08:44:23.280Z,63.65
2019-04-29T08:45:23.703Z,63.83
2019-04-29T08:46:24.281Z,63.59
2019-04-29T08:47:30.590Z,63.09
2019-04-29T08:48:31.179Z,63.12
2019-04-29T08:49:31.597Z,63.19
2019-04-29T08:50:32.034Z,63.29
2019-04-29T08:51:33.534Z,62.78
2019-04-29T08:52:33.969Z,62.88
2019-04-29T08:53:34.419Z,62.88
2019-04-29T08:54:37.056Z,62.65
2019-04-29T08:55:38.869Z,62.65
2019-04-29T08:56:42.528Z,62.24
2019-04-29T08:57:45.707Z,62.24
2019-04-29T08:58:49.381Z,62.27
2019-04-29T08:59:51.458Z,62.04
2019-04-29T09:00:55.822Z,61.83
2019-04-29T09:01:58.322Z,61.22
2019-04-29T09:02:58.855Z,61.83
2019-04-29T09:03:59.386Z,61.51
2019-04-29T09:04:59.890Z,61.51
2019-04-29T09:06:05.513Z,61.53
2019-04-29T09:07:12.612Z,61.63
2019-04-29T09:08:13.664Z,61.74
2019-04-29T09:09:28.771Z,61.91
2019-04-29T09:10:20.668Z,61.51
2019-04-29T09:13:30.616Z,60.89
2019-04-29T09:14:31.062Z,60.97
2019-04-29T09:15:31.610Z,60.97
2019-04-29T09:16:32.068Z,61.07
2019-04-29T09:17:32.561Z,61.07
2019-04-29T09:18:33.003Z,60.83
2019-04-29T09:19:54.159Z,61.14
2019-04-29T09:20:54.625Z,60.74
2019-04-29T09:21:55.158Z,60.81
2019-04-29T09:22:55.619Z,60.81
2019-04-29T09:23:56.132Z,60.40
2019-04-29T09:24:56.556Z,60.60
2019-04-29T09:26:02.956Z,60.27
2019-04-29T09:27:05.064Z,60.27
2019-04-29T09:28:10.096Z,59.77
2019-04-29T09:29:11.639Z,60.37
2019-04-29T09:30:12.079Z,59.46
2019-04-29T09:31:15.681Z,59.86
2019-04-29T09:32:16.123Z,59.86
2019-04-29T09:33:16.787Z,60.07
2019-04-29T09:34:19.927Z,59.66
2019-04-29T09:35:23.628Z,60.07
2019-04-29T09:36:24.279Z,59.97
2019-04-29T09:37:24.740Z,59.97
2019-04-29T09:38:27.257Z,59.56
2019-04-29T09:39:27.690Z,59.77
2019-04-29T09:40:28.123Z,60.07
2019-04-29T09:41:30.457Z,60.07
2019-04-29T09:42:35.056Z,59.33
2019-04-29T09:43:37.537Z,59.23
2019-04-29T09:44:40.259Z,59.50
2019-04-29T09:45:45.436Z,59.12
2019-04-29T09:46:45.889Z,59.10
2019-04-29T09:47:48.417Z,58.80
2019-04-29T09:48:48.855Z,58.69
2019-04-29T09:49:56.113Z,58.56
2019-04-29T09:50:56.550Z,58.56
2019-04-29T09:51:59.036Z,58.97
2019-04-29T09:52:59.468Z,58.03
2019-04-29T09:53:59.928Z,57.62
2019-04-29T09:55:03.937Z,57.93
2019-04-29T09:56:06.878Z,57.70
2019-04-29T09:57:07.331Z,58.20
2019-04-29T09:58:07.773Z,57.80
2019-04-29T09:59:08.234Z,57.29
2019-04-29T10:00:08.676Z,57.83
2019-04-29T10:01:09.125Z,57.22
2019-04-29T10:02:09.646Z,57.93
2019-04-29T10:03:10.111Z,57.83
2019-04-29T10:04:10.573Z,57.86
2019-04-29T10:05:11.034Z,58.26
2019-04-29T10:06:12.533Z,57.65
2019-04-29T10:07:13.101Z,57.48
2019-04-29T10:08:13.574Z,57.78
2019-04-29T10:09:14.028Z,57.96
2019-04-29T10:10:14.582Z,57.96
2019-04-29T10:11:15.052Z,58.16
2019-04-29T10:12:15.552Z,58.47
2019-04-29T10:13:16.005Z,58.06
2019-04-29T10:14:16.546Z,57.86
2019-04-29T10:15:17.014Z,57.96
2019-04-29T10:16:17.458Z,57.96
2019-04-29T10:17:17.926Z,57.04
2019-04-29T10:18:18.384Z,57.96
2019-04-29T10:19:18.831Z,58.06
2019-04-29T10:20:19.279Z,57.35
2019-04-29T10:21:21.414Z,57.86
2019-04-29T10:22:23.439Z,57.12
2019-04-29T10:23:23.889Z,57.42
2019-04-29T10:24:24.350Z,57.65
2019-04-29T10:25:24.802Z,57.35
2019-04-29T10:26:25.273Z,57.35
2019-04-29T10:27:25.740Z,57.15
2019-04-29T10:28:26.185Z,57.04
2019-04-29T10:29:26.637Z,56.34
2019-04-29T10:30:31.163Z,56.54
2019-04-29T10:31:33.528Z,56.64
2019-04-29T10:32:37.753Z,56.64
2019-04-29T10:33:40.450Z,56.41
2019-04-29T10:34:43.128Z,56.41
2019-04-29T10:35:45.141Z,56.61
2019-04-29T10:36:46.770Z,56.61
2019-04-29T10:37:47.231Z,56.61
2019-04-29T10:38:47.694Z,57.02
2019-04-29T10:39:48.152Z,57.02
2019-04-29T10:40:48.606Z,57.02
2019-04-29T10:41:49.116Z,56.41
2019-04-29T10:42:49.569Z,56.51
2019-04-29T10:43:53.814Z,56.51
2019-04-29T10:44:56.455Z,57.02
2019-04-29T10:45:56.896Z,57.02
2019-04-29T10:46:57.385Z,56.31
2019-04-29T10:47:57.831Z,56.41
2019-04-29T10:48:59.044Z,56.51
2019-04-29T10:50:03.618Z,56.61
2019-04-29T10:51:04.067Z,57.02
2019-04-29T10:52:04.637Z,57.12
2019-04-29T10:53:05.157Z,57.02
2019-04-29T10:54:05.605Z,56.82
2019-04-29T10:55:06.072Z,56.99
2019-04-29T10:56:07.019Z,57.02
2019-04-29T10:57:10.578Z,56.51
2019-04-29T10:58:14.035Z,56.28
2019-04-29T10:59:14.493Z,56.79
2019-04-29T11:00:16.985Z,56.48
2019-04-29T11:01:21.346Z,56.38
2019-04-29T11:02:21.824Z,56.69
2019-04-29T11:03:25.051Z,56.38
2019-04-29T11:04:26.575Z,56.56
2019-04-29T11:05:27.025Z,56.66
2019-04-29T11:06:31.294Z,56.76
2019-04-29T11:07:33.947Z,56.46
2019-04-29T11:08:38.119Z,56.76
2019-04-29T11:09:50.862Z,56.26
2019-04-29T11:11:01.851Z,56.15
2019-04-29T11:11:59.380Z,56.26
2019-04-29T11:12:59.885Z,56.15
2019-04-29T11:14:01.558Z,56.15
2019-04-29T11:15:02.392Z,56.56
2019-04-29T11:16:02.865Z,55.82
2019-04-29T11:17:03.328Z,56.05
2019-04-29T11:18:03.966Z,56.02
2019-04-29T11:19:05.604Z,55.04
2019-04-29T11:20:06.438Z,54.91
2019-04-29T11:21:08.944Z,55.42
2019-04-29T11:22:09.542Z,55.24
2019-04-29T11:23:16.610Z,55.35
2019-04-29T11:24:16.582Z,54.84
2019-04-29T11:25:17.049Z,54.94
2019-04-29T11:26:17.543Z,55.35
2019-04-29T11:27:17.987Z,56.18
2019-04-29T11:28:18.517Z,56.28
2019-04-29T11:29:22.113Z,56.15
2019-04-29T11:30:25.430Z,56.26
2019-04-29T11:31:25.877Z,56.26
2019-04-29T11:32:29.223Z,56.15
2019-04-29T11:33:30.774Z,56.08
2019-04-29T11:34:33.332Z,56.26
2019-04-29T11:35:37.739Z,56.05
2019-04-29T11:36:38.975Z,56.28
2019-04-29T11:37:42.466Z,56.08
2019-04-29T11:38:45.601Z,56.69
2019-04-29T11:39:49.877Z,56.48
2019-04-29T11:40:50.699Z,56.79
2019-04-29T11:41:54.693Z,56.66
2019-04-29T11:42:57.583Z,56.26
2019-04-29T11:43:58.095Z,55.95
2019-04-29T11:45:02.110Z,56.26
2019-04-29T11:46:04.966Z,56.15
2019-04-29T11:47:05.423Z,56.66
2019-04-29T11:48:05.936Z,55.95
2019-04-29T11:49:06.397Z,55.95
2019-04-29T11:50:07.661Z,56.73
2019-04-29T11:51:12.062Z,56.23
2019-04-29T11:52:12.507Z,56.73
2019-04-29T11:53:12.991Z,56.02
2019-04-29T11:54:17.867Z,56.15
2019-04-29T11:55:20.113Z,56.73
2019-04-29T11:56:20.714Z,56.05
2019-04-29T11:57:21.185Z,56.46
2019-04-29T11:58:21.637Z,56.46
2019-04-29T11:59:22.128Z,56.76
2019-04-29T12:00:22.710Z,56.36
2019-04-29T12:01:37.362Z,56.26
2019-04-29T12:02:44.540Z,56.36
2019-04-29T12:03:37.491Z,56.89
2019-04-29T12:04:38.121Z,56.99
2019-04-29T12:05:40.165Z,56.99
2019-04-29T12:06:44.990Z,56.46
2019-04-29T12:07:45.462Z,56.86
2019-04-29T12:08:48.023Z,55.93
2019-04-29T12:09:52.405Z,56.23
2019-04-29T12:11:06.438Z,56.02
2019-04-29T12:11:59.325Z,55.80
2019-04-29T12:13:00.812Z,54.89
2019-04-29T12:14:03.117Z,55.09
2019-04-29T12:15:04.952Z,54.99
2019-04-29T12:16:05.447Z,55.40
2019-04-29T12:17:05.908Z,55.19
2019-04-29T12:18:06.365Z,55.60
2019-04-29T12:19:06.833Z,55.49
2019-04-29T12:20:07.275Z,54.99
2019-04-29T12:21:07.800Z,55.09
2019-04-29T12:22:19.587Z,55.62
2019-04-29T12:23:17.324Z,55.22
2019-04-29T12:24:18.856Z,55.22
2019-04-29T12:25:22.898Z,55.22
2019-04-29T12:26:25.782Z,55.24
2019-04-29T12:27:29.175Z,55.22
2019-04-29T12:28:30.010Z,55.32
2019-04-29T12:29:31.500Z,55.02
2019-04-29T12:30:34.609Z,55.22
2019-04-29T12:31:37.784Z,55.11
2019-04-29T12:32:38.249Z,55.29
2019-04-29T12:33:38.723Z,55.49
2019-04-29T12:34:39.153Z,55.49
2019-04-29T12:35:51.256Z,54.99
2019-04-29T12:36:56.248Z,54.79
2019-04-29T12:37:52.501Z,55.49
2019-04-29T12:38:53.099Z,55.49
2019-04-29T12:39:53.648Z,55.42
2019-04-29T12:40:55.095Z,55.42
2019-04-29T12:41:55.810Z,55.11
2019-04-29T12:42:56.254Z,55.11
2019-04-29T12:43:59.431Z,55.29
2019-04-29T12:45:00.208Z,55.09
2019-04-29T12:46:00.779Z,54.63
2019-04-29T12:47:01.218Z,54.23
2019-04-29T12:48:01.664Z,54.43
2019-04-29T12:49:07.601Z,54.53
2019-04-29T12:50:08.573Z,54.33
2019-04-29T12:51:09.093Z,54.00
2019-04-29T12:52:09.544Z,53.40
2019-04-29T12:53:10.029Z,53.27
2019-04-29T12:54:10.577Z,52.97
2019-04-29T12:55:20.450Z,53.07
2019-04-29T12:56:17.471Z,53.07
2019-04-29T12:57:18.768Z,52.87
2019-04-29T12:58:23.903Z,52.76
2019-04-29T12:59:26.073Z,52.67
2019-04-29T13:00:26.561Z,52.67
2019-04-29T13:01:50.279Z,52.67
2019-04-29T13:02:33.487Z,52.56
2019-04-29T13:03:39.713Z,52.89
2019-04-29T13:04:40.395Z,52.47
2019-04-29T13:05:40.840Z,52.87
2019-04-29T13:06:42.316Z,52.67
2019-04-29T13:07:43.226Z,52.26
2019-04-29T13:08:43.733Z,52.34
2019-04-29T13:09:44.212Z,52.42
2019-04-29T13:10:44.648Z,51.40
2019-04-29T13:11:48.473Z,51.61
2019-04-29T13:12:50.041Z,51.59
2019-04-29T13:14:33.264Z,51.91
2019-04-29T13:15:36.070Z,50.11
2019-04-29T13:16:36.651Z,49.76
2019-04-29T13:17:37.097Z,48.96
2019-04-29T13:18:37.583Z,48.75
2019-04-29T13:19:38.052Z,48.88
2019-04-29T13:20:41.647Z,48.80
2019-04-29T13:21:44.919Z,49.01
2019-04-29T13:22:45.391Z,48.80
2019-04-29T13:23:59.256Z,49.02
2019-04-29T13:24:52.263Z,49.33
2019-04-29T13:25:55.945Z,48.95
2019-04-29T13:26:59.145Z,48.97
2019-04-29T13:28:04.034Z,49.19
2019-04-29T13:29:06.091Z,48.90
2019-04-29T13:30:11.445Z,49.10
2019-04-29T13:31:12.987Z,49.80
2019-04-29T13:32:13.448Z,49.62
2019-04-29T13:33:22.278Z,49.60
2019-04-29T13:34:24.429Z,49.40
2019-04-29T13:35:25.282Z,49.82
2019-04-29T13:36:26.369Z,50.02
2019-04-29T13:37:27.884Z,50.63
2019-04-29T13:38:28.326Z,50.15
2019-04-29T13:39:39.207Z,49.65
2019-04-29T13:40:37.765Z,50.57
2019-04-29T13:41:56.182Z,50.68
2019-04-29T13:42:49.150Z,50.27
2019-04-29T13:43:51.427Z,51.00
2019-04-29T13:45:06.085Z,51.31
2019-04-29T13:45:58.326Z,51.71
2019-04-29T13:46:58.797Z,51.81
2019-04-29T13:48:01.740Z,51.33